sensor_id;sensor_type;location;lat;lon;timestamp;P1;durP1;ratioP1;P2;durP2;ratioP2
84521;SDS011;74758;50.066;20.008;2024-01-30T00:01:21;64.30;;;38.50;;
84521;SDS011;74758;50.066;20.008;2024-01-30T00:03:23;59.70;;;32.70;;
84521;SDS011;74758;50.066;20.008;2024-01-30T00:05:25;58.50;;;32.20;;
84521;SDS011;74758;50.066;20.008;2024-01-30T00:07:26;58.80;;;33.10;;
84521;SDS011;74758;50.066;20.008;2024-01-30T00:09:28;62.10;;;36.70;;
84521;SDS011;74758;50.066;20.008;2024-01-30T00:11:30;58.90;;;34.30;;
84521;SDS011;74758;50.066;20.008;2024-01-30T00:13:32;61.80;;;34.20;;
84521;SDS011;74758;50.066;20.008;2024-01-30T00:15:34;59.20;;;32.80;;
84521;SDS011;74758;50.066;20.008;2024-01-30T00:17:36;60.50;;;30.90;;
84521;SDS011;74758;50.066;20.008;2024-01-30T00:19:38;59.40;;;33.10;;
84521;SDS011;74758;50.066;20.008;2024-01-30T00:21:40;61.60;;;34.00;;
84521;SDS011;74758;50.066;20.008;2024-01-30T00:23:42;60.80;;;33.80;;
84521;SDS011;74758;50.066;20.008;2024-01-30T00:25:44;62.90;;;36.70;;
84521;SDS011;74758;50.066;20.008;2024-01-30T00:27:46;59.60;;;33.30;;
84521;SDS011;74758;50.066;20.008;2024-01-30T00:29:48;54.90;;;31.30;;
84521;SDS011;74758;50.066;20.008;2024-01-30T00:31:49;59.80;;;31.70;;
84521;SDS011;74758;50.066;20.008;2024-01-30T00:33:51;57.30;;;31.10;;
84521;SDS011;74758;50.066;20.008;2024-01-30T00:35:53;56.90;;;31.40;;
84521;SDS011;74758;50.066;20.008;2024-01-30T00:37:55;71.30;;;38.20;;
84521;SDS011;74758;50.066;20.008;2024-01-30T00:39:57;65.40;;;34.60;;
84521;SDS011;74758;50.066;20.008;2024-01-30T00:41:59;62.40;;;33.80;;
84521;SDS011;74758;50.066;20.008;2024-01-30T00:44:01;56.20;;;33.50;;
84521;SDS011;74758;50.066;20.008;2024-01-30T00:46:02;58.60;;;32.70;;
84521;SDS011;74758;50.066;20.008;2024-01-30T00:48:05;62.90;;;35.50;;
84521;SDS011;74758;50.066;20.008;2024-01-30T00:50:07;66.60;;;35.60;;
84521;SDS011;74758;50.066;20.008;2024-01-30T00:52:09;68.70;;;35.90;;
84521;SDS011;74758;50.066;20.008;2024-01-30T00:54:11;68.10;;;34.70;;
84521;SDS011;74758;50.066;20.008;2024-01-30T00:56:13;62.80;;;34.70;;
84521;SDS011;74758;50.066;20.008;2024-01-30T00:58:15;62.50;;;35.40;;
84521;SDS011;74758;50.066;20.008;2024-01-30T01:00:16;66.40;;;32.50;;
84521;SDS011;74758;50.066;20.008;2024-01-30T01:02:18;69.40;;;32.20;;
84521;SDS011;74758;50.066;20.008;2024-01-30T01:04:20;64.20;;;33.40;;
84521;SDS011;74758;50.066;20.008;2024-01-30T01:06:23;60.40;;;33.40;;
84521;SDS011;74758;50.066;20.008;2024-01-30T01:08:24;65.30;;;34.60;;
84521;SDS011;74758;50.066;20.008;2024-01-30T01:10:26;61.50;;;33.80;;
84521;SDS011;74758;50.066;20.008;2024-01-30T01:12:28;65.00;;;33.70;;
84521;SDS011;74758;50.066;20.008;2024-01-30T01:14:30;62.00;;;32.60;;
84521;SDS011;74758;50.066;20.008;2024-01-30T01:16:32;73.90;;;37.60;;
84521;SDS011;74758;50.066;20.008;2024-01-30T01:18:34;64.50;;;37.00;;
84521;SDS011;74758;50.066;20.008;2024-01-30T01:20:36;67.50;;;37.10;;
84521;SDS011;74758;50.066;20.008;2024-01-30T01:22:38;67.70;;;35.90;;
84521;SDS011;74758;50.066;20.008;2024-01-30T01:24:40;68.30;;;36.10;;
84521;SDS011;74758;50.066;20.008;2024-01-30T01:26:42;69.50;;;37.40;;
84521;SDS011;74758;50.066;20.008;2024-01-30T01:28:43;74.10;;;38.20;;
84521;SDS011;74758;50.066;20.008;2024-01-30T01:30:45;74.80;;;38.90;;
84521;SDS011;74758;50.066;20.008;2024-01-30T01:32:48;75.60;;;40.30;;
84521;SDS011;74758;50.066;20.008;2024-01-30T01:34:58;71.90;;;36.90;;
84521;SDS011;74758;50.066;20.008;2024-01-30T01:37:00;76.40;;;39.30;;
84521;SDS011;74758;50.066;20.008;2024-01-30T01:39:02;73.70;;;40.60;;
84521;SDS011;74758;50.066;20.008;2024-01-30T01:41:04;65.20;;;35.00;;
84521;SDS011;74758;50.066;20.008;2024-01-30T01:43:06;69.70;;;36.80;;
84521;SDS011;74758;50.066;20.008;2024-01-30T01:45:08;70.30;;;40.40;;
84521;SDS011;74758;50.066;20.008;2024-01-30T01:47:10;70.70;;;37.50;;
84521;SDS011;74758;50.066;20.008;2024-01-30T01:49:12;69.00;;;35.10;;
84521;SDS011;74758;50.066;20.008;2024-01-30T01:51:16;69.70;;;40.90;;
84521;SDS011;74758;50.066;20.008;2024-01-30T01:53:18;65.50;;;39.40;;
84521;SDS011;74758;50.066;20.008;2024-01-30T01:55:20;75.10;;;39.20;;
84521;SDS011;74758;50.066;20.008;2024-01-30T01:57:23;68.20;;;41.50;;
84521;SDS011;74758;50.066;20.008;2024-01-30T01:59:25;65.90;;;34.20;;
84521;SDS011;74758;50.066;20.008;2024-01-30T02:01:27;69.10;;;36.70;;
84521;SDS011;74758;50.066;20.008;2024-01-30T02:03:30;66.70;;;37.90;;
84521;SDS011;74758;50.066;20.008;2024-01-30T02:05:32;68.20;;;35.10;;
84521;SDS011;74758;50.066;20.008;2024-01-30T02:07:34;68.80;;;35.70;;
84521;SDS011;74758;50.066;20.008;2024-01-30T02:09:36;70.10;;;36.90;;
84521;SDS011;74758;50.066;20.008;2024-01-30T02:11:38;75.60;;;45.40;;
84521;SDS011;74758;50.066;20.008;2024-01-30T02:13:40;77.00;;;39.40;;
84521;SDS011;74758;50.066;20.008;2024-01-30T02:15:42;66.70;;;34.60;;
84521;SDS011;74758;50.066;20.008;2024-01-30T02:17:44;72.70;;;37.10;;
84521;SDS011;74758;50.066;20.008;2024-01-30T02:19:45;67.60;;;37.40;;
84521;SDS011;74758;50.066;20.008;2024-01-30T02:21:47;65.50;;;34.60;;
84521;SDS011;74758;50.066;20.008;2024-01-30T02:23:49;64.60;;;34.90;;
84521;SDS011;74758;50.066;20.008;2024-01-30T02:25:52;64.70;;;33.10;;
84521;SDS011;74758;50.066;20.008;2024-01-30T02:27:54;69.10;;;37.80;;
84521;SDS011;74758;50.066;20.008;2024-01-30T02:29:56;66.10;;;32.60;;
84521;SDS011;74758;50.066;20.008;2024-01-30T02:31:57;68.00;;;36.40;;
84521;SDS011;74758;50.066;20.008;2024-01-30T02:33:59;70.30;;;38.10;;
84521;SDS011;74758;50.066;20.008;2024-01-30T02:36:01;74.80;;;38.80;;
84521;SDS011;74758;50.066;20.008;2024-01-30T02:38:03;73.50;;;39.70;;
84521;SDS011;74758;50.066;20.008;2024-01-30T02:40:05;65.60;;;37.70;;
84521;SDS011;74758;50.066;20.008;2024-01-30T02:42:07;65.40;;;34.40;;
84521;SDS011;74758;50.066;20.008;2024-01-30T02:44:09;67.80;;;35.40;;
84521;SDS011;74758;50.066;20.008;2024-01-30T02:46:11;78.70;;;37.90;;
84521;SDS011;74758;50.066;20.008;2024-01-30T02:48:12;69.00;;;38.30;;
84521;SDS011;74758;50.066;20.008;2024-01-30T02:50:14;72.60;;;39.20;;
84521;SDS011;74758;50.066;20.008;2024-01-30T02:52:16;69.70;;;35.50;;
84521;SDS011;74758;50.066;20.008;2024-01-30T02:54:18;64.80;;;35.70;;
84521;SDS011;74758;50.066;20.008;2024-01-30T02:56:20;72.60;;;37.50;;
84521;SDS011;74758;50.066;20.008;2024-01-30T02:58:22;68.80;;;37.40;;
84521;SDS011;74758;50.066;20.008;2024-01-30T03:00:24;68.90;;;39.20;;
84521;SDS011;74758;50.066;20.008;2024-01-30T03:02:25;79.90;;;37.60;;
84521;SDS011;74758;50.066;20.008;2024-01-30T03:04:27;61.70;;;32.00;;
84521;SDS011;74758;50.066;20.008;2024-01-30T03:06:31;63.40;;;33.20;;
84521;SDS011;74758;50.066;20.008;2024-01-30T03:08:33;64.30;;;31.70;;
84521;SDS011;74758;50.066;20.008;2024-01-30T03:10:36;63.20;;;32.00;;
84521;SDS011;74758;50.066;20.008;2024-01-30T03:12:38;60.90;;;30.30;;
84521;SDS011;74758;50.066;20.008;2024-01-30T03:14:39;65.20;;;32.20;;
84521;SDS011;74758;50.066;20.008;2024-01-30T03:16:41;65.60;;;39.30;;
84521;SDS011;74758;50.066;20.008;2024-01-30T03:18:42;71.20;;;37.00;;
84521;SDS011;74758;50.066;20.008;2024-01-30T03:20:44;73.10;;;36.70;;
84521;SDS011;74758;50.066;20.008;2024-01-30T03:22:46;71.80;;;36.70;;
84521;SDS011;74758;50.066;20.008;2024-01-30T03:24:47;72.30;;;39.00;;
84521;SDS011;74758;50.066;20.008;2024-01-30T03:26:49;64.80;;;35.80;;
84521;SDS011;74758;50.066;20.008;2024-01-30T03:28:51;69.00;;;35.70;;
84521;SDS011;74758;50.066;20.008;2024-01-30T03:30:53;75.20;;;41.00;;
84521;SDS011;74758;50.066;20.008;2024-01-30T03:32:54;71.70;;;38.40;;
84521;SDS011;74758;50.066;20.008;2024-01-30T03:34:56;74.80;;;38.80;;
84521;SDS011;74758;50.066;20.008;2024-01-30T03:36:58;76.40;;;37.90;;
84521;SDS011;74758;50.066;20.008;2024-01-30T03:39:00;67.50;;;35.60;;
84521;SDS011;74758;50.066;20.008;2024-01-30T03:41:02;67.30;;;35.00;;
84521;SDS011;74758;50.066;20.008;2024-01-30T03:43:04;68.80;;;35.30;;
84521;SDS011;74758;50.066;20.008;2024-01-30T03:45:07;59.40;;;32.90;;
84521;SDS011;74758;50.066;20.008;2024-01-30T03:47:09;67.90;;;33.10;;
84521;SDS011;74758;50.066;20.008;2024-01-30T03:49:11;54.00;;;26.40;;
84521;SDS011;74758;50.066;20.008;2024-01-30T03:51:12;66.40;;;34.60;;
84521;SDS011;74758;50.066;20.008;2024-01-30T03:53:17;63.50;;;32.00;;
84521;SDS011;74758;50.066;20.008;2024-01-30T03:55:18;63.00;;;33.70;;
84521;SDS011;74758;50.066;20.008;2024-01-30T03:57:20;63.50;;;34.60;;
84521;SDS011;74758;50.066;20.008;2024-01-30T03:59:22;62.90;;;33.40;;
84521;SDS011;74758;50.066;20.008;2024-01-30T04:01:25;74.70;;;41.30;;
84521;SDS011;74758;50.066;20.008;2024-01-30T04:03:27;76.20;;;36.10;;
84521;SDS011;74758;50.066;20.008;2024-01-30T04:05:29;75.40;;;40.00;;
84521;SDS011;74758;50.066;20.008;2024-01-30T04:07:31;72.80;;;35.50;;
84521;SDS011;74758;50.066;20.008;2024-01-30T04:09:33;66.00;;;37.10;;
84521;SDS011;74758;50.066;20.008;2024-01-30T04:11:35;71.40;;;36.70;;
84521;SDS011;74758;50.066;20.008;2024-01-30T04:13:36;70.50;;;38.30;;
84521;SDS011;74758;50.066;20.008;2024-01-30T04:15:38;70.30;;;39.30;;
84521;SDS011;74758;50.066;20.008;2024-01-30T04:17:41;76.60;;;38.60;;
84521;SDS011;74758;50.066;20.008;2024-01-30T04:19:42;78.40;;;37.50;;
84521;SDS011;74758;50.066;20.008;2024-01-30T04:21:44;68.70;;;37.20;;
84521;SDS011;74758;50.066;20.008;2024-01-30T04:23:46;64.70;;;34.10;;
84521;SDS011;74758;50.066;20.008;2024-01-30T04:25:48;68.10;;;34.30;;
84521;SDS011;74758;50.066;20.008;2024-01-30T04:27:50;57.40;;;30.10;;
84521;SDS011;74758;50.066;20.008;2024-01-30T04:29:51;64.20;;;32.30;;
84521;SDS011;74758;50.066;20.008;2024-01-30T04:31:53;66.30;;;38.30;;
84521;SDS011;74758;50.066;20.008;2024-01-30T04:33:55;66.90;;;33.90;;
84521;SDS011;74758;50.066;20.008;2024-01-30T04:35:56;67.40;;;38.50;;
84521;SDS011;74758;50.066;20.008;2024-01-30T04:37:58;65.70;;;33.30;;
84521;SDS011;74758;50.066;20.008;2024-01-30T04:40:00;76.30;;;43.90;;
84521;SDS011;74758;50.066;20.008;2024-01-30T04:42:01;80.80;;;42.80;;
84521;SDS011;74758;50.066;20.008;2024-01-30T04:44:05;73.10;;;36.70;;
84521;SDS011;74758;50.066;20.008;2024-01-30T04:46:08;78.00;;;42.20;;
84521;SDS011;74758;50.066;20.008;2024-01-30T04:48:10;69.70;;;42.60;;
84521;SDS011;74758;50.066;20.008;2024-01-30T04:50:11;74.40;;;37.40;;
84521;SDS011;74758;50.066;20.008;2024-01-30T04:52:13;75.20;;;37.30;;
84521;SDS011;74758;50.066;20.008;2024-01-30T04:54:15;75.70;;;38.90;;
84521;SDS011;74758;50.066;20.008;2024-01-30T04:56:16;73.10;;;36.80;;
84521;SDS011;74758;50.066;20.008;2024-01-30T04:58:18;74.80;;;38.40;;
84521;SDS011;74758;50.066;20.008;2024-01-30T05:00:20;76.90;;;37.30;;
84521;SDS011;74758;50.066;20.008;2024-01-30T05:02:21;71.20;;;36.70;;
84521;SDS011;74758;50.066;20.008;2024-01-30T05:04:23;68.60;;;32.10;;
84521;SDS011;74758;50.066;20.008;2024-01-30T05:06:26;71.60;;;36.50;;
84521;SDS011;74758;50.066;20.008;2024-01-30T05:08:31;75.00;;;40.40;;
84521;SDS011;74758;50.066;20.008;2024-01-30T05:10:33;66.80;;;32.80;;
84521;SDS011;74758;50.066;20.008;2024-01-30T05:12:35;67.70;;;34.70;;
84521;SDS011;74758;50.066;20.008;2024-01-30T05:14:37;63.80;;;35.40;;
84521;SDS011;74758;50.066;20.008;2024-01-30T05:16:39;65.80;;;33.20;;
84521;SDS011;74758;50.066;20.008;2024-01-30T05:18:40;72.70;;;36.00;;
84521;SDS011;74758;50.066;20.008;2024-01-30T05:20:42;73.20;;;35.30;;
84521;SDS011;74758;50.066;20.008;2024-01-30T05:22:44;66.30;;;32.30;;
84521;SDS011;74758;50.066;20.008;2024-01-30T05:24:46;67.70;;;33.20;;
84521;SDS011;74758;50.066;20.008;2024-01-30T05:26:48;60.50;;;32.00;;
84521;SDS011;74758;50.066;20.008;2024-01-30T05:28:51;62.70;;;32.90;;
84521;SDS011;74758;50.066;20.008;2024-01-30T05:30:53;68.40;;;35.30;;
84521;SDS011;74758;50.066;20.008;2024-01-30T05:32:54;71.30;;;35.50;;
84521;SDS011;74758;50.066;20.008;2024-01-30T05:34:56;64.80;;;32.70;;
84521;SDS011;74758;50.066;20.008;2024-01-30T05:36:58;61.90;;;39.30;;
84521;SDS011;74758;50.066;20.008;2024-01-30T05:39:00;62.10;;;32.30;;
84521;SDS011;74758;50.066;20.008;2024-01-30T05:41:02;64.70;;;34.80;;
84521;SDS011;74758;50.066;20.008;2024-01-30T05:43:04;65.00;;;39.10;;
84521;SDS011;74758;50.066;20.008;2024-01-30T05:45:05;67.90;;;33.10;;
84521;SDS011;74758;50.066;20.008;2024-01-30T05:47:07;58.70;;;31.70;;
84521;SDS011;74758;50.066;20.008;2024-01-30T05:49:09;66.20;;;31.00;;
84521;SDS011;74758;50.066;20.008;2024-01-30T05:51:11;61.50;;;30.40;;
84521;SDS011;74758;50.066;20.008;2024-01-30T05:53:13;66.30;;;31.80;;
84521;SDS011;74758;50.066;20.008;2024-01-30T05:55:14;61.10;;;35.10;;
84521;SDS011;74758;50.066;20.008;2024-01-30T05:57:16;61.80;;;29.90;;
84521;SDS011;74758;50.066;20.008;2024-01-30T05:59:18;66.10;;;32.70;;
84521;SDS011;74758;50.066;20.008;2024-01-30T06:01:20;63.10;;;32.90;;
84521;SDS011;74758;50.066;20.008;2024-01-30T06:03:22;66.30;;;34.60;;
84521;SDS011;74758;50.066;20.008;2024-01-30T06:05:24;64.50;;;33.70;;
84521;SDS011;74758;50.066;20.008;2024-01-30T06:07:25;59.50;;;29.30;;
84521;SDS011;74758;50.066;20.008;2024-01-30T06:09:27;63.80;;;39.30;;
84521;SDS011;74758;50.066;20.008;2024-01-30T06:11:30;56.80;;;32.60;;
84521;SDS011;74758;50.066;20.008;2024-01-30T06:13:32;58.60;;;31.90;;
84521;SDS011;74758;50.066;20.008;2024-01-30T06:15:34;65.90;;;34.90;;
84521;SDS011;74758;50.066;20.008;2024-01-30T06:17:36;67.80;;;35.60;;
84521;SDS011;74758;50.066;20.008;2024-01-30T06:19:38;69.60;;;40.90;;
84521;SDS011;74758;50.066;20.008;2024-01-30T06:21:43;64.20;;;34.10;;
84521;SDS011;74758;50.066;20.008;2024-01-30T06:23:44;67.50;;;34.90;;
84521;SDS011;74758;50.066;20.008;2024-01-30T06:25:46;63.20;;;32.30;;
84521;SDS011;74758;50.066;20.008;2024-01-30T06:27:48;52.10;;;29.80;;
84521;SDS011;74758;50.066;20.008;2024-01-30T06:29:50;63.40;;;32.60;;
84521;SDS011;74758;50.066;20.008;2024-01-30T06:31:52;63.10;;;32.10;;
84521;SDS011;74758;50.066;20.008;2024-01-30T06:33:53;54.10;;;31.60;;
84521;SDS011;74758;50.066;20.008;2024-01-30T06:35:55;56.90;;;29.60;;
84521;SDS011;74758;50.066;20.008;2024-01-30T06:37:57;59.40;;;30.10;;
84521;SDS011;74758;50.066;20.008;2024-01-30T06:39:59;58.10;;;33.20;;
84521;SDS011;74758;50.066;20.008;2024-01-30T06:42:01;53.00;;;29.30;;
84521;SDS011;74758;50.066;20.008;2024-01-30T06:44:02;62.40;;;31.70;;
84521;SDS011;74758;50.066;20.008;2024-01-30T06:46:09;64.90;;;31.90;;
84521;SDS011;74758;50.066;20.008;2024-01-30T06:48:11;59.60;;;35.20;;
84521;SDS011;74758;50.066;20.008;2024-01-30T06:50:13;67.20;;;32.80;;
84521;SDS011;74758;50.066;20.008;2024-01-30T06:52:14;60.50;;;31.00;;
84521;SDS011;74758;50.066;20.008;2024-01-30T06:54:16;55.60;;;30.80;;
84521;SDS011;74758;50.066;20.008;2024-01-30T06:56:18;64.00;;;33.70;;
84521;SDS011;74758;50.066;20.008;2024-01-30T06:58:22;72.80;;;38.00;;
84521;SDS011;74758;50.066;20.008;2024-01-30T07:00:24;73.80;;;41.80;;
84521;SDS011;74758;50.066;20.008;2024-01-30T07:02:25;72.50;;;36.80;;
84521;SDS011;74758;50.066;20.008;2024-01-30T07:04:27;71.40;;;37.70;;
84521;SDS011;74758;50.066;20.008;2024-01-30T07:06:29;72.40;;;41.60;;
84521;SDS011;74758;50.066;20.008;2024-01-30T07:08:31;68.10;;;36.20;;
84521;SDS011;74758;50.066;20.008;2024-01-30T07:10:32;67.60;;;33.50;;
84521;SDS011;74758;50.066;20.008;2024-01-30T07:12:34;80.30;;;38.00;;
84521;SDS011;74758;50.066;20.008;2024-01-30T07:14:36;76.90;;;43.00;;
84521;SDS011;74758;50.066;20.008;2024-01-30T07:16:38;74.60;;;35.80;;
84521;SDS011;74758;50.066;20.008;2024-01-30T07:18:40;61.20;;;30.80;;
84521;SDS011;74758;50.066;20.008;2024-01-30T07:20:42;65.20;;;35.40;;
84521;SDS011;74758;50.066;20.008;2024-01-30T07:22:50;70.90;;;36.90;;
84521;SDS011;74758;50.066;20.008;2024-01-30T07:24:52;86.50;;;39.30;;
84521;SDS011;74758;50.066;20.008;2024-01-30T07:26:54;81.50;;;43.00;;
84521;SDS011;74758;50.066;20.008;2024-01-30T07:28:56;82.90;;;41.00;;
84521;SDS011;74758;50.066;20.008;2024-01-30T07:30:57;84.80;;;41.70;;
84521;SDS011;74758;50.066;20.008;2024-01-30T07:32:59;78.90;;;40.50;;
84521;SDS011;74758;50.066;20.008;2024-01-30T07:35:01;77.20;;;42.70;;
84521;SDS011;74758;50.066;20.008;2024-01-30T07:37:09;85.20;;;41.20;;
84521;SDS011;74758;50.066;20.008;2024-01-30T07:39:12;87.90;;;44.60;;
84521;SDS011;74758;50.066;20.008;2024-01-30T07:41:13;84.50;;;41.00;;
84521;SDS011;74758;50.066;20.008;2024-01-30T07:43:15;86.80;;;42.50;;
84521;SDS011;74758;50.066;20.008;2024-01-30T07:45:17;85.30;;;43.60;;
84521;SDS011;74758;50.066;20.008;2024-01-30T07:47:23;82.00;;;41.20;;
84521;SDS011;74758;50.066;20.008;2024-01-30T07:49:25;84.30;;;46.40;;
84521;SDS011;74758;50.066;20.008;2024-01-30T07:51:27;81.50;;;41.40;;
84521;SDS011;74758;50.066;20.008;2024-01-30T07:53:30;85.10;;;40.70;;
84521;SDS011;74758;50.066;20.008;2024-01-30T07:55:32;79.10;;;41.00;;
84521;SDS011;74758;50.066;20.008;2024-01-30T07:57:34;78.80;;;42.60;;
84521;SDS011;74758;50.066;20.008;2024-01-30T07:59:36;91.90;;;46.40;;
84521;SDS011;74758;50.066;20.008;2024-01-30T08:01:37;89.20;;;47.60;;
84521;SDS011;74758;50.066;20.008;2024-01-30T08:03:40;84.10;;;47.20;;
84521;SDS011;74758;50.066;20.008;2024-01-30T08:05:43;84.90;;;44.10;;
84521;SDS011;74758;50.066;20.008;2024-01-30T08:07:45;85.40;;;47.90;;
84521;SDS011;74758;50.066;20.008;2024-01-30T08:09:47;89.00;;;46.60;;
84521;SDS011;74758;50.066;20.008;2024-01-30T08:11:49;84.40;;;45.90;;
84521;SDS011;74758;50.066;20.008;2024-01-30T08:13:52;81.00;;;45.20;;
84521;SDS011;74758;50.066;20.008;2024-01-30T08:15:54;79.80;;;44.60;;
84521;SDS011;74758;50.066;20.008;2024-01-30T08:17:56;85.20;;;46.60;;
84521;SDS011;74758;50.066;20.008;2024-01-30T08:19:59;82.50;;;45.10;;
84521;SDS011;74758;50.066;20.008;2024-01-30T08:22:01;78.80;;;41.80;;
84521;SDS011;74758;50.066;20.008;2024-01-30T08:24:03;78.70;;;43.50;;
84521;SDS011;74758;50.066;20.008;2024-01-30T08:26:06;73.40;;;41.60;;
84521;SDS011;74758;50.066;20.008;2024-01-30T08:28:08;74.10;;;42.50;;
84521;SDS011;74758;50.066;20.008;2024-01-30T08:30:10;73.20;;;43.10;;
84521;SDS011;74758;50.066;20.008;2024-01-30T08:32:12;74.30;;;44.10;;
84521;SDS011;74758;50.066;20.008;2024-01-30T08:34:14;79.80;;;44.80;;
84521;SDS011;74758;50.066;20.008;2024-01-30T08:36:16;73.30;;;44.40;;
84521;SDS011;74758;50.066;20.008;2024-01-30T08:38:18;74.80;;;49.60;;
84521;SDS011;74758;50.066;20.008;2024-01-30T08:40:20;74.80;;;44.90;;
84521;SDS011;74758;50.066;20.008;2024-01-30T08:42:22;69.60;;;42.80;;
84521;SDS011;74758;50.066;20.008;2024-01-30T08:44:24;77.00;;;46.30;;
84521;SDS011;74758;50.066;20.008;2024-01-30T08:46:26;73.50;;;45.10;;
84521;SDS011;74758;50.066;20.008;2024-01-30T08:48:27;68.60;;;41.90;;
84521;SDS011;74758;50.066;20.008;2024-01-30T08:50:29;68.10;;;42.20;;
84521;SDS011;74758;50.066;20.008;2024-01-30T08:52:31;65.90;;;42.70;;
84521;SDS011;74758;50.066;20.008;2024-01-30T08:54:34;74.80;;;46.50;;
84521;SDS011;74758;50.066;20.008;2024-01-30T08:56:36;68.90;;;42.60;;
84521;SDS011;74758;50.066;20.008;2024-01-30T08:58:38;70.90;;;43.40;;
84521;SDS011;74758;50.066;20.008;2024-01-30T09:00:39;60.80;;;41.80;;
84521;SDS011;74758;50.066;20.008;2024-01-30T09:02:41;66.20;;;40.80;;
84521;SDS011;74758;50.066;20.008;2024-01-30T09:04:43;67.00;;;45.00;;
84521;SDS011;74758;50.066;20.008;2024-01-30T09:06:45;68.40;;;43.20;;
84521;SDS011;74758;50.066;20.008;2024-01-30T09:08:47;63.20;;;42.00;;
84521;SDS011;74758;50.066;20.008;2024-01-30T09:10:50;66.90;;;42.40;;
84521;SDS011;74758;50.066;20.008;2024-01-30T09:12:52;64.80;;;43.40;;
84521;SDS011;74758;50.066;20.008;2024-01-30T09:14:54;61.10;;;41.00;;
84521;SDS011;74758;50.066;20.008;2024-01-30T09:16:56;65.50;;;41.00;;
84521;SDS011;74758;50.066;20.008;2024-01-30T09:18:58;68.70;;;43.50;;
84521;SDS011;74758;50.066;20.008;2024-01-30T09:21:00;66.20;;;43.90;;
84521;SDS011;74758;50.066;20.008;2024-01-30T09:23:02;70.00;;;44.00;;
84521;SDS011;74758;50.066;20.008;2024-01-30T09:25:04;68.30;;;44.00;;
84521;SDS011;74758;50.066;20.008;2024-01-30T09:27:06;67.30;;;42.50;;
84521;SDS011;74758;50.066;20.008;2024-01-30T09:29:07;63.70;;;42.30;;
84521;SDS011;74758;50.066;20.008;2024-01-30T09:31:10;61.00;;;38.00;;
84521;SDS011;74758;50.066;20.008;2024-01-30T09:33:12;68.30;;;42.50;;
84521;SDS011;74758;50.066;20.008;2024-01-30T09:35:13;62.40;;;40.80;;
84521;SDS011;74758;50.066;20.008;2024-01-30T09:37:16;63.90;;;39.70;;
84521;SDS011;74758;50.066;20.008;2024-01-30T09:39:19;62.70;;;39.00;;
84521;SDS011;74758;50.066;20.008;2024-01-30T09:41:22;65.80;;;39.40;;
84521;SDS011;74758;50.066;20.008;2024-01-30T09:43:25;63.20;;;37.30;;
84521;SDS011;74758;50.066;20.008;2024-01-30T09:45:32;55.50;;;37.00;;
84521;SDS011;74758;50.066;20.008;2024-01-30T09:47:40;56.10;;;35.60;;
84521;SDS011;74758;50.066;20.008;2024-01-30T09:49:46;56.90;;;35.90;;
84521;SDS011;74758;50.066;20.008;2024-01-30T09:51:49;54.50;;;35.20;;
84521;SDS011;74758;50.066;20.008;2024-01-30T09:53:51;54.20;;;35.00;;
84521;SDS011;74758;50.066;20.008;2024-01-30T09:55:55;56.10;;;38.60;;
84521;SDS011;74758;50.066;20.008;2024-01-30T09:57:57;56.50;;;36.20;;
84521;SDS011;74758;50.066;20.008;2024-01-30T10:00:01;50.70;;;34.50;;
84521;SDS011;74758;50.066;20.008;2024-01-30T10:02:03;62.40;;;38.70;;
84521;SDS011;74758;50.066;20.008;2024-01-30T10:04:06;63.20;;;37.10;;
84521;SDS011;74758;50.066;20.008;2024-01-30T10:08:11;61.30;;;36.90;;
84521;SDS011;74758;50.066;20.008;2024-01-30T10:10:12;63.50;;;35.30;;
84521;SDS011;74758;50.066;20.008;2024-01-30T10:12:15;61.10;;;38.30;;
84521;SDS011;74758;50.066;20.008;2024-01-30T10:14:16;55.90;;;36.10;;
84521;SDS011;74758;50.066;20.008;2024-01-30T10:16:18;63.60;;;37.00;;
84521;SDS011;74758;50.066;20.008;2024-01-30T10:18:22;63.60;;;34.90;;
84521;SDS011;74758;50.066;20.008;2024-01-30T10:20:24;56.10;;;32.90;;
84521;SDS011;74758;50.066;20.008;2024-01-30T10:22:26;58.10;;;34.60;;
84521;SDS011;74758;50.066;20.008;2024-01-30T10:24:28;55.90;;;32.40;;
84521;SDS011;74758;50.066;20.008;2024-01-30T10:26:33;52.70;;;32.80;;
84521;SDS011;74758;50.066;20.008;2024-01-30T10:28:35;55.00;;;32.10;;
84521;SDS011;74758;50.066;20.008;2024-01-30T10:30:37;57.00;;;32.20;;
84521;SDS011;74758;50.066;20.008;2024-01-30T10:32:39;45.30;;;29.30;;
84521;SDS011;74758;50.066;20.008;2024-01-30T10:34:40;47.00;;;29.90;;
84521;SDS011;74758;50.066;20.008;2024-01-30T10:36:43;47.00;;;28.50;;
84521;SDS011;74758;50.066;20.008;2024-01-30T10:38:49;49.00;;;31.80;;
84521;SDS011;74758;50.066;20.008;2024-01-30T10:40:52;55.50;;;30.20;;
84521;SDS011;74758;50.066;20.008;2024-01-30T10:43:00;51.50;;;29.30;;
84521;SDS011;74758;50.066;20.008;2024-01-30T10:45:06;44.60;;;29.20;;
84521;SDS011;74758;50.066;20.008;2024-01-30T10:47:11;50.90;;;32.20;;
84521;SDS011;74758;50.066;20.008;2024-01-30T10:49:16;53.70;;;31.30;;
84521;SDS011;74758;50.066;20.008;2024-01-30T10:51:18;50.10;;;30.40;;
84521;SDS011;74758;50.066;20.008;2024-01-30T10:53:21;53.40;;;31.00;;
84521;SDS011;74758;50.066;20.008;2024-01-30T10:55:24;52.00;;;32.70;;
84521;SDS011;74758;50.066;20.008;2024-01-30T10:57:29;57.40;;;33.40;;
84521;SDS011;74758;50.066;20.008;2024-01-30T10:59:31;62.10;;;34.60;;
84521;SDS011;74758;50.066;20.008;2024-01-30T11:03:36;58.00;;;33.60;;
84521;SDS011;74758;50.066;20.008;2024-01-30T11:05:40;59.80;;;34.90;;
84521;SDS011;74758;50.066;20.008;2024-01-30T11:07:42;62.70;;;37.00;;
84521;SDS011;74758;50.066;20.008;2024-01-30T11:09:51;54.60;;;34.00;;
84521;SDS011;74758;50.066;20.008;2024-01-30T11:11:57;61.90;;;38.40;;
84521;SDS011;74758;50.066;20.008;2024-01-30T11:14:03;58.10;;;34.90;;
84521;SDS011;74758;50.066;20.008;2024-01-30T11:16:05;61.10;;;36.40;;
84521;SDS011;74758;50.066;20.008;2024-01-30T11:18:07;59.90;;;34.40;;
84521;SDS011;74758;50.066;20.008;2024-01-30T11:20:12;58.20;;;37.00;;
84521;SDS011;74758;50.066;20.008;2024-01-30T11:22:19;64.20;;;37.80;;
84521;SDS011;74758;50.066;20.008;2024-01-30T11:24:25;64.50;;;39.30;;
84521;SDS011;74758;50.066;20.008;2024-01-30T11:26:28;67.80;;;39.90;;
84521;SDS011;74758;50.066;20.008;2024-01-30T11:28:32;64.20;;;37.20;;
84521;SDS011;74758;50.066;20.008;2024-01-30T11:30:36;62.40;;;37.70;;
84521;SDS011;74758;50.066;20.008;2024-01-30T11:32:37;56.30;;;33.50;;
84521;SDS011;74758;50.066;20.008;2024-01-30T11:34:40;62.40;;;38.10;;
84521;SDS011;74758;50.066;20.008;2024-01-30T11:36:42;55.10;;;34.20;;
84521;SDS011;74758;50.066;20.008;2024-01-30T11:38:47;59.90;;;35.90;;
84521;SDS011;74758;50.066;20.008;2024-01-30T11:40:49;55.20;;;33.20;;
84521;SDS011;74758;50.066;20.008;2024-01-30T11:42:53;55.40;;;31.70;;
84521;SDS011;74758;50.066;20.008;2024-01-30T11:44:56;53.20;;;31.30;;
84521;SDS011;74758;50.066;20.008;2024-01-30T11:46:59;52.70;;;32.10;;
84521;SDS011;74758;50.066;20.008;2024-01-30T11:49:01;50.90;;;31.00;;